sensor_id;sensor_type;location;lat;lon;timestamp;temperature;humidity
44886;DHT22;36669;51.428;21.162;2024-02-23T00:01:52;8.70;99.90
44886;DHT22;36669;51.428;21.162;2024-02-23T00:04:18;8.70;99.90
44886;DHT22;36669;51.428;21.162;2024-02-23T00:06:51;8.70;99.90
44886;DHT22;36669;51.428;21.162;2024-02-23T00:09:17;8.70;99.90
44886;DHT22;36669;51.428;21.162;2024-02-23T00:11:43;8.70;99.90
44886;DHT22;36669;51.428;21.162;2024-02-23T00:14:12;8.70;99.90
44886;DHT22;36669;51.428;21.162;2024-02-23T00:16:39;8.80;99.90
44886;DHT22;36669;51.428;21.162;2024-02-23T00:19:13;8.80;99.90
44886;DHT22;36669;51.428;21.162;2024-02-23T00:21:40;8.80;99.90
44886;DHT22;36669;51.428;21.162;2024-02-23T00:24:09;8.80;99.90
44886;DHT22;36669;51.428;21.162;2024-02-23T00:26:37;8.80;99.90
44886;DHT22;36669;51.428;21.162;2024-02-23T00:29:04;8.80;99.90
44886;DHT22;36669;51.428;21.162;2024-02-23T00:31:31;8.80;99.90
44886;DHT22;36669;51.428;21.162;2024-02-23T00:33:58;8.70;99.90
44886;DHT22;36669;51.428;21.162;2024-02-23T00:36:24;8.70;99.90
44886;DHT22;36669;51.428;21.162;2024-02-23T00:38:51;8.70;99.90
44886;DHT22;36669;51.428;21.162;2024-02-23T00:41:18;8.80;99.90
44886;DHT22;36669;51.428;21.162;2024-02-23T00:43:43;8.70;99.90
44886;DHT22;36669;51.428;21.162;2024-02-23T00:46:11;8.70;99.90
44886;DHT22;36669;51.428;21.162;2024-02-23T00:48:38;8.70;99.90
44886;DHT22;36669;51.428;21.162;2024-02-23T00:51:04;8.70;99.90
44886;DHT22;36669;51.428;21.162;2024-02-23T00:53:34;8.70;99.90
44886;DHT22;36669;51.428;21.162;2024-02-23T00:56:01;8.70;99.90
44886;DHT22;36669;51.428;21.162;2024-02-23T00:58:29;8.70;99.90
44886;DHT22;36669;51.428;21.162;2024-02-23T01:00:56;8.70;99.90
44886;DHT22;36669;51.428;21.162;2024-02-23T01:03:24;8.70;99.90
44886;DHT22;36669;51.428;21.162;2024-02-23T01:05:49;8.70;99.90
44886;DHT22;36669;51.428;21.162;2024-02-23T01:08:17;8.80;99.90
44886;DHT22;36669;51.428;21.162;2024-02-23T01:10:45;8.70;99.90
44886;DHT22;36669;51.428;21.162;2024-02-23T01:13:12;8.80;99.90
44886;DHT22;36669;51.428;21.162;2024-02-23T01:15:41;8.80;99.90
44886;DHT22;36669;51.428;21.162;2024-02-23T01:18:07;8.70;99.90
44886;DHT22;36669;51.428;21.162;2024-02-23T01:20:33;8.80;99.90
44886;DHT22;36669;51.428;21.162;2024-02-23T01:23:01;8.80;99.90
44886;DHT22;36669;51.428;21.162;2024-02-23T01:25:27;8.70;99.90
44886;DHT22;36669;51.428;21.162;2024-02-23T01:27:54;8.70;99.90
44886;DHT22;36669;51.428;21.162;2024-02-23T01:30:21;8.80;99.90
44886;DHT22;36669;51.428;21.162;2024-02-23T01:32:46;8.70;99.90
44886;DHT22;36669;51.428;21.162;2024-02-23T01:35:15;8.70;99.90
44886;DHT22;36669;51.428;21.162;2024-02-23T01:37:41;8.70;99.90
44886;DHT22;36669;51.428;21.162;2024-02-23T01:40:08;8.70;99.90
44886;DHT22;36669;51.428;21.162;2024-02-23T01:42:38;8.70;99.90
44886;DHT22;36669;51.428;21.162;2024-02-23T01:45:04;8.70;99.90
44886;DHT22;36669;51.428;21.162;2024-02-23T01:47:30;8.70;99.90
44886;DHT22;36669;51.428;21.162;2024-02-23T01:49:59;8.70;99.90
44886;DHT22;36669;51.428;21.162;2024-02-23T01:52:26;8.70;99.90
44886;DHT22;36669;51.428;21.162;2024-02-23T01:54:55;8.70;99.90
44886;DHT22;36669;51.428;21.162;2024-02-23T01:57:23;8.80;99.90
44886;DHT22;36669;51.428;21.162;2024-02-23T01:59:54;8.80;99.90
44886;DHT22;36669;51.428;21.162;2024-02-23T02:02:23;8.80;99.90
44886;DHT22;36669;51.428;21.162;2024-02-23T02:04:49;8.80;99.90
44886;DHT22;36669;51.428;21.162;2024-02-23T02:07:15;8.80;99.90
44886;DHT22;36669;51.428;21.162;2024-02-23T02:09:47;8.90;99.90
44886;DHT22;36669;51.428;21.162;2024-02-23T02:12:14;8.90;99.90
44886;DHT22;36669;51.428;21.162;2024-02-23T02:14:42;8.90;99.90
44886;DHT22;36669;51.428;21.162;2024-02-23T02:17:08;8.90;99.90
44886;DHT22;36669;51.428;21.162;2024-02-23T02:19:36;8.90;99.90
44886;DHT22;36669;51.428;21.162;2024-02-23T02:22:03;8.90;99.90
44886;DHT22;36669;51.428;21.162;2024-02-23T02:24:31;8.90;99.90
44886;DHT22;36669;51.428;21.162;2024-02-23T02:27:01;8.90;99.90
44886;DHT22;36669;51.428;21.162;2024-02-23T02:29:28;8.90;99.90
44886;DHT22;36669;51.428;21.162;2024-02-23T02:31:56;8.90;99.90
44886;DHT22;36669;51.428;21.162;2024-02-23T02:34:22;8.90;99.90
44886;DHT22;36669;51.428;21.162;2024-02-23T02:36:48;8.90;99.90
44886;DHT22;36669;51.428;21.162;2024-02-23T02:39:16;8.90;99.90
44886;DHT22;36669;51.428;21.162;2024-02-23T02:41:43;8.90;99.90
44886;DHT22;36669;51.428;21.162;2024-02-23T02:44:09;8.80;99.90
44886;DHT22;36669;51.428;21.162;2024-02-23T02:46:35;8.80;99.90
44886;DHT22;36669;51.428;21.162;2024-02-23T02:49:01;8.80;99.90
44886;DHT22;36669;51.428;21.162;2024-02-23T02:51:28;8.90;99.90
44886;DHT22;36669;51.428;21.162;2024-02-23T02:53:55;8.90;99.90
44886;DHT22;36669;51.428;21.162;2024-02-23T02:56:24;9.00;99.90
44886;DHT22;36669;51.428;21.162;2024-02-23T02:58:51;9.00;99.90
44886;DHT22;36669;51.428;21.162;2024-02-23T03:01:18;9.00;99.90
44886;DHT22;36669;51.428;21.162;2024-02-23T03:03:45;9.00;99.90
44886;DHT22;36669;51.428;21.162;2024-02-23T03:06:13;9.00;99.90
44886;DHT22;36669;51.428;21.162;2024-02-23T03:08:43;9.00;99.90
44886;DHT22;36669;51.428;21.162;2024-02-23T03:11:09;9.00;99.90
44886;DHT22;36669;51.428;21.162;2024-02-23T03:13:34;9.10;99.90
44886;DHT22;36669;51.428;21.162;2024-02-23T03:16:01;9.10;99.90
44886;DHT22;36669;51.428;21.162;2024-02-23T03:18:28;9.10;99.90
44886;DHT22;36669;51.428;21.162;2024-02-23T03:20:55;9.10;99.90
44886;DHT22;36669;51.428;21.162;2024-02-23T03:23:22;9.20;99.90
44886;DHT22;36669;51.428;21.162;2024-02-23T03:25:49;9.20;99.90
44886;DHT22;36669;51.428;21.162;2024-02-23T03:28:16;9.20;99.90
44886;DHT22;36669;51.428;21.162;2024-02-23T03:30:45;9.20;99.90
44886;DHT22;36669;51.428;21.162;2024-02-23T03:33:10;9.20;99.90
44886;DHT22;36669;51.428;21.162;2024-02-23T03:35:38;9.20;99.90
44886;DHT22;36669;51.428;21.162;2024-02-23T03:38:06;9.20;99.90
44886;DHT22;36669;51.428;21.162;2024-02-23T03:40:33;9.20;99.90
44886;DHT22;36669;51.428;21.162;2024-02-23T03:43:03;9.20;99.90
44886;DHT22;36669;51.428;21.162;2024-02-23T03:45:29;9.10;99.90
44886;DHT22;36669;51.428;21.162;2024-02-23T03:47:55;9.20;99.90
44886;DHT22;36669;51.428;21.162;2024-02-23T03:50:23;9.10;99.90
44886;DHT22;36669;51.428;21.162;2024-02-23T03:52:51;9.10;99.90
44886;DHT22;36669;51.428;21.162;2024-02-23T03:55:18;9.10;99.90
44886;DHT22;36669;51.428;21.162;2024-02-23T03:57:45;9.10;99.90
44886;DHT22;36669;51.428;21.162;2024-02-23T04:00:12;9.10;99.90
44886;DHT22;36669;51.428;21.162;2024-02-23T04:02:40;9.10;99.90
44886;DHT22;36669;51.428;21.162;2024-02-23T04:05:06;9.00;99.90
44886;DHT22;36669;51.428;21.162;2024-02-23T04:07:34;9.00;99.90
44886;DHT22;36669;51.428;21.162;2024-02-23T04:10:01;9.00;99.90
44886;DHT22;36669;51.428;21.162;2024-02-23T04:12:28;9.00;99.90
44886;DHT22;36669;51.428;21.162;2024-02-23T04:14:55;9.00;99.90
44886;DHT22;36669;51.428;21.162;2024-02-23T04:17:23;9.00;99.90
44886;DHT22;36669;51.428;21.162;2024-02-23T04:19:52;8.90;99.90
44886;DHT22;36669;51.428;21.162;2024-02-23T04:22:19;9.00;99.90
44886;DHT22;36669;51.428;21.162;2024-02-23T04:24:47;9.00;99.90
44886;DHT22;36669;51.428;21.162;2024-02-23T04:27:14;8.90;99.90
44886;DHT22;36669;51.428;21.162;2024-02-23T04:29:41;8.90;99.90
44886;DHT22;36669;51.428;21.162;2024-02-23T04:32:08;8.90;99.90
44886;DHT22;36669;51.428;21.162;2024-02-23T04:34:34;8.90;99.90
44886;DHT22;36669;51.428;21.162;2024-02-23T04:37:00;8.90;99.90
44886;DHT22;36669;51.428;21.162;2024-02-23T04:39:25;8.90;99.90
44886;DHT22;36669;51.428;21.162;2024-02-23T04:41:52;8.90;99.90
44886;DHT22;36669;51.428;21.162;2024-02-23T04:44:20;8.90;99.90
44886;DHT22;36669;51.428;21.162;2024-02-23T04:46:47;8.90;99.90
44886;DHT22;36669;51.428;21.162;2024-02-23T04:49:15;8.90;99.90
44886;DHT22;36669;51.428;21.162;2024-02-23T04:51:40;8.90;99.90
44886;DHT22;36669;51.428;21.162;2024-02-23T04:54:06;8.80;99.90
44886;DHT22;36669;51.428;21.162;2024-02-23T04:56:34;8.80;99.90
44886;DHT22;36669;51.428;21.162;2024-02-23T04:59:00;8.80;99.90
44886;DHT22;36669;51.428;21.162;2024-02-23T05:01:25;8.90;99.90
44886;DHT22;36669;51.428;21.162;2024-02-23T05:03:52;8.80;99.90
44886;DHT22;36669;51.428;21.162;2024-02-23T05:06:19;8.80;99.90
44886;DHT22;36669;51.428;21.162;2024-02-23T05:08:45;8.80;99.90
44886;DHT22;36669;51.428;21.162;2024-02-23T05:11:23;8.80;99.90
44886;DHT22;36669;51.428;21.162;2024-02-23T05:13:51;8.80;99.90
44886;DHT22;36669;51.428;21.162;2024-02-23T05:16:17;8.80;99.90
44886;DHT22;36669;51.428;21.162;2024-02-23T05:18:43;8.80;99.90
44886;DHT22;36669;51.428;21.162;2024-02-23T05:21:12;8.80;99.90
44886;DHT22;36669;51.428;21.162;2024-02-23T05:23:39;8.80;99.90
44886;DHT22;36669;51.428;21.162;2024-02-23T05:26:07;8.80;99.90
44886;DHT22;36669;51.428;21.162;2024-02-23T05:28:34;8.80;99.90
44886;DHT22;36669;51.428;21.162;2024-02-23T05:31:02;8.70;99.90
44886;DHT22;36669;51.428;21.162;2024-02-23T05:33:30;8.70;99.90
44886;DHT22;36669;51.428;21.162;2024-02-23T05:35:58;8.70;99.90
44886;DHT22;36669;51.428;21.162;2024-02-23T05:38:25;8.70;99.90
44886;DHT22;36669;51.428;21.162;2024-02-23T05:40:51;8.70;99.90
44886;DHT22;36669;51.428;21.162;2024-02-23T05:43:18;8.70;99.90
44886;DHT22;36669;51.428;21.162;2024-02-23T05:45:43;8.70;99.90
44886;DHT22;36669;51.428;21.162;2024-02-23T05:48:11;8.70;99.90
44886;DHT22;36669;51.428;21.162;2024-02-23T05:50:38;8.70;99.90
44886;DHT22;36669;51.428;21.162;2024-02-23T05:53:05;8.70;99.90
44886;DHT22;36669;51.428;21.162;2024-02-23T05:55:32;8.70;99.90
44886;DHT22;36669;51.428;21.162;2024-02-23T05:57:59;8.60;99.90
44886;DHT22;36669;51.428;21.162;2024-02-23T06:00:26;8.60;99.90
44886;DHT22;36669;51.428;21.162;2024-02-23T06:02:51;8.60;99.90
44886;DHT22;36669;51.428;21.162;2024-02-23T06:05:18;8.60;99.90
44886;DHT22;36669;51.428;21.162;2024-02-23T06:07:44;8.50;99.90
44886;DHT22;36669;51.428;21.162;2024-02-23T06:10:10;8.60;99.90
44886;DHT22;36669;51.428;21.162;2024-02-23T06:12:35;8.50;99.90
44886;DHT22;36669;51.428;21.162;2024-02-23T06:15:02;8.50;99.90
44886;DHT22;36669;51.428;21.162;2024-02-23T06:17:29;8.50;99.90
44886;DHT22;36669;51.428;21.162;2024-02-23T06:19:57;8.50;99.90
44886;DHT22;36669;51.428;21.162;2024-02-23T06:22:25;8.50;99.90
44886;DHT22;36669;51.428;21.162;2024-02-23T06:24:52;8.50;99.90
44886;DHT22;36669;51.428;21.162;2024-02-23T06:27:19;8.40;99.90
44886;DHT22;36669;51.428;21.162;2024-02-23T06:29:46;8.40;99.90
44886;DHT22;36669;51.428;21.162;2024-02-23T06:32:11;8.40;99.90
44886;DHT22;36669;51.428;21.162;2024-02-23T06:34:37;8.40;99.90
44886;DHT22;36669;51.428;21.162;2024-02-23T06:37:04;8.40;99.90
44886;DHT22;36669;51.428;21.162;2024-02-23T06:39:32;8.40;99.90
44886;DHT22;36669;51.428;21.162;2024-02-23T06:41:59;8.40;99.90
44886;DHT22;36669;51.428;21.162;2024-02-23T06:44:27;8.40;99.90
44886;DHT22;36669;51.428;21.162;2024-02-23T06:46:56;8.40;99.90
44886;DHT22;36669;51.428;21.162;2024-02-23T06:49:23;8.40;99.90
44886;DHT22;36669;51.428;21.162;2024-02-23T06:51:48;8.40;99.90
44886;DHT22;36669;51.428;21.162;2024-02-23T06:54:15;8.40;99.90
44886;DHT22;36669;51.428;21.162;2024-02-23T06:56:43;8.40;99.90
44886;DHT22;36669;51.428;21.162;2024-02-23T06:59:10;8.40;99.90
44886;DHT22;36669;51.428;21.162;2024-02-23T07:01:46;8.40;99.90
44886;DHT22;36669;51.428;21.162;2024-02-23T07:04:13;8.40;99.90
44886;DHT22;36669;51.428;21.162;2024-02-23T07:06:41;8.40;99.90
44886;DHT22;36669;51.428;21.162;2024-02-23T07:09:06;8.40;99.90
44886;DHT22;36669;51.428;21.162;2024-02-23T07:11:34;8.40;99.90
44886;DHT22;36669;51.428;21.162;2024-02-23T07:14:01;8.40;99.90
44886;DHT22;36669;51.428;21.162;2024-02-23T07:16:28;8.40;99.90
44886;DHT22;36669;51.428;21.162;2024-02-23T07:18:56;8.40;99.90
44886;DHT22;36669;51.428;21.162;2024-02-23T07:21:22;8.40;99.90
44886;DHT22;36669;51.428;21.162;2024-02-23T07:23:50;8.50;99.90
44886;DHT22;36669;51.428;21.162;2024-02-23T07:26:17;8.40;99.90
44886;DHT22;36669;51.428;21.162;2024-02-23T07:28:48;8.40;99.90
44886;DHT22;36669;51.428;21.162;2024-02-23T07:31:15;8.40;99.90
44886;DHT22;36669;51.428;21.162;2024-02-23T07:33:43;8.40;99.90
44886;DHT22;36669;51.428;21.162;2024-02-23T07:36:19;8.40;99.90
44886;DHT22;36669;51.428;21.162;2024-02-23T07:38:47;8.40;99.90
44886;DHT22;36669;51.428;21.162;2024-02-23T07:41:17;8.40;99.90
44886;DHT22;36669;51.428;21.162;2024-02-23T07:43:45;8.40;99.90
44886;DHT22;36669;51.428;21.162;2024-02-23T07:46:13;8.50;99.90
44886;DHT22;36669;51.428;21.162;2024-02-23T07:48:40;8.50;99.90
44886;DHT22;36669;51.428;21.162;2024-02-23T07:51:09;8.50;99.90
44886;DHT22;36669;51.428;21.162;2024-02-23T07:53:36;8.60;99.90
44886;DHT22;36669;51.428;21.162;2024-02-23T07:56:03;8.60;99.90
44886;DHT22;36669;51.428;21.162;2024-02-23T07:58:29;8.60;99.90
44886;DHT22;36669;51.428;21.162;2024-02-23T08:00:56;8.60;99.90
44886;DHT22;36669;51.428;21.162;2024-02-23T08:03:23;8.60;99.90
44886;DHT22;36669;51.428;21.162;2024-02-23T08:05:49;8.70;99.90
44886;DHT22;36669;51.428;21.162;2024-02-23T08:08:16;8.70;99.90
44886;DHT22;36669;51.428;21.162;2024-02-23T08:10:44;8.70;99.90
44886;DHT22;36669;51.428;21.162;2024-02-23T08:13:12;8.70;99.90
44886;DHT22;36669;51.428;21.162;2024-02-23T08:15:39;8.70;99.90
44886;DHT22;36669;51.428;21.162;2024-02-23T08:18:06;8.70;99.90
44886;DHT22;36669;51.428;21.162;2024-02-23T08:20:33;8.70;99.90
44886;DHT22;36669;51.428;21.162;2024-02-23T08:22:59;8.70;99.90
44886;DHT22;36669;51.428;21.162;2024-02-23T08:25:26;8.80;99.90
44886;DHT22;36669;51.428;21.162;2024-02-23T08:27:57;8.80;99.90
44886;DHT22;36669;51.428;21.162;2024-02-23T08:30:25;8.80;99.90
44886;DHT22;36669;51.428;21.162;2024-02-23T08:32:55;8.90;99.90
44886;DHT22;36669;51.428;21.162;2024-02-23T08:35:21;8.80;99.90
44886;DHT22;36669;51.428;21.162;2024-02-23T08:37:48;8.90;99.90
44886;DHT22;36669;51.428;21.162;2024-02-23T08:40:17;8.90;99.90
44886;DHT22;36669;51.428;21.162;2024-02-23T08:42:44;9.00;99.90
44886;DHT22;36669;51.428;21.162;2024-02-23T08:45:11;9.00;99.90
44886;DHT22;36669;51.428;21.162;2024-02-23T08:47:39;9.00;99.90
44886;DHT22;36669;51.428;21.162;2024-02-23T08:50:07;9.00;99.90
44886;DHT22;36669;51.428;21.162;2024-02-23T08:52:32;9.10;99.90
44886;DHT22;36669;51.428;21.162;2024-02-23T08:54:59;9.10;99.90
44886;DHT22;36669;51.428;21.162;2024-02-23T08:57:28;9.10;99.90
44886;DHT22;36669;51.428;21.162;2024-02-23T08:59:55;9.10;99.90
44886;DHT22;36669;51.428;21.162;2024-02-23T09:02:24;9.10;99.90
44886;DHT22;36669;51.428;21.162;2024-02-23T09:04:52;9.10;99.90
44886;DHT22;36669;51.428;21.162;2024-02-23T09:07:20;9.10;99.90
44886;DHT22;36669;51.428;21.162;2024-02-23T09:09:48;9.10;99.90
44886;DHT22;36669;51.428;21.162;2024-02-23T09:12:16;9.20;99.90
44886;DHT22;36669;51.428;21.162;2024-02-23T09:14:45;9.20;99.90
44886;DHT22;36669;51.428;21.162;2024-02-23T09:17:14;9.20;99.90
44886;DHT22;36669;51.428;21.162;2024-02-23T09:19:41;9.20;99.90
44886;DHT22;36669;51.428;21.162;2024-02-23T09:22:07;9.20;99.90
44886;DHT22;36669;51.428;21.162;2024-02-23T09:24:33;9.30;99.90
44886;DHT22;36669;51.428;21.162;2024-02-23T09:27:00;9.30;99.90
44886;DHT22;36669;51.428;21.162;2024-02-23T09:29:27;9.30;99.90
44886;DHT22;36669;51.428;21.162;2024-02-23T09:31:52;9.40;99.90
44886;DHT22;36669;51.428;21.162;2024-02-23T09:34:19;9.40;99.90
44886;DHT22;36669;51.428;21.162;2024-02-23T09:36:52;9.50;99.90
44886;DHT22;36669;51.428;21.162;2024-02-23T09:39:19;9.50;99.90
44886;DHT22;36669;51.428;21.162;2024-02-23T09:41:51;9.50;99.90
44886;DHT22;36669;51.428;21.162;2024-02-23T09:44:18;9.50;99.90
44886;DHT22;36669;51.428;21.162;2024-02-23T09:46:48;9.50;99.90
44886;DHT22;36669;51.428;21.162;2024-02-23T09:49:16;9.50;99.90
44886;DHT22;36669;51.428;21.162;2024-02-23T09:51:43;9.50;99.90
44886;DHT22;36669;51.428;21.162;2024-02-23T09:54:09;9.50;99.90
44886;DHT22;36669;51.428;21.162;2024-02-23T09:56:36;9.60;99.90
44886;DHT22;36669;51.428;21.162;2024-02-23T09:59:04;9.50;99.90
44886;DHT22;36669;51.428;21.162;2024-02-23T10:01:32;9.50;99.90
44886;DHT22;36669;51.428;21.162;2024-02-23T10:04:04;9.50;99.90
44886;DHT22;36669;51.428;21.162;2024-02-23T10:06:31;9.50;99.90
44886;DHT22;36669;51.428;21.162;2024-02-23T10:08:58;9.50;99.90
44886;DHT22;36669;51.428;21.162;2024-02-23T10:11:30;9.50;99.90
44886;DHT22;36669;51.428;21.162;2024-02-23T10:13:58;9.40;99.90
44886;DHT22;36669;51.428;21.162;2024-02-23T10:16:24;9.40;99.90
44886;DHT22;36669;51.428;21.162;2024-02-23T10:18:50;9.40;99.90
44886;DHT22;36669;51.428;21.162;2024-02-23T10:21:17;9.30;99.90
44886;DHT22;36669;51.428;21.162;2024-02-23T10:23:47;9.30;99.90
44886;DHT22;36669;51.428;21.162;2024-02-23T10:26:15;9.30;99.90
44886;DHT22;36669;51.428;21.162;2024-02-23T10:28:46;9.30;99.90
44886;DHT22;36669;51.428;21.162;2024-02-23T10:31:15;9.30;99.90
44886;DHT22;36669;51.428;21.162;2024-02-23T10:33:44;9.30;99.90
44886;DHT22;36669;51.428;21.162;2024-02-23T10:36:11;9.20;99.90
44886;DHT22;36669;51.428;21.162;2024-02-23T10:38:38;9.20;99.90
44886;DHT22;36669;51.428;21.162;2024-02-23T10:41:06;9.20;99.90
44886;DHT22;36669;51.428;21.162;2024-02-23T10:43:40;9.20;99.90
44886;DHT22;36669;51.428;21.162;2024-02-23T10:46:07;9.20;99.90
44886;DHT22;36669;51.428;21.162;2024-02-23T10:48:41;9.30;99.90
44886;DHT22;36669;51.428;21.162;2024-02-23T10:51:15;9.20;99.90
44886;DHT22;36669;51.428;21.162;2024-02-23T10:53:44;9.20;99.90
44886;DHT22;36669;51.428;21.162;2024-02-23T10:56:10;9.30;99.90
44886;DHT22;36669;51.428;21.162;2024-02-23T10:58:37;9.20;99.90
44886;DHT22;36669;51.428;21.162;2024-02-23T11:01:07;9.20;99.90
44886;DHT22;36669;51.428;21.162;2024-02-23T11:03:37;9.20;99.90
44886;DHT22;36669;51.428;21.162;2024-02-23T11:06:08;9.20;99.90
44886;DHT22;36669;51.428;21.162;2024-02-23T11:08:37;9.20;99.90
44886;DHT22;36669;51.428;21.162;2024-02-23T11:11:12;9.20;99.90
44886;DHT22;36669;51.428;21.162;2024-02-23T11:13:44;9.20;99.90
44886;DHT22;36669;51.428;21.162;2024-02-23T11:16:21;9.20;99.90
44886;DHT22;36669;51.428;21.162;2024-02-23T11:19:03;9.10;99.90
44886;DHT22;36669;51.428;21.162;2024-02-23T11:21:35;9.10;99.90
44886;DHT22;36669;51.428;21.162;2024-02-23T11:24:05;9.10;99.90
44886;DHT22;36669;51.428;21.162;2024-02-23T11:26:32;9.10;99.90
44886;DHT22;36669;51.428;21.162;2024-02-23T11:29:11;9.10;99.90
44886;DHT22;36669;51.428;21.162;2024-02-23T11:31:45;9.10;99.90
44886;DHT22;36669;51.428;21.162;2024-02-23T11:34:11;9.10;99.90
44886;DHT22;36669;51.428;21.162;2024-02-23T11:36:39;9.10;99.90
44886;DHT22;36669;51.428;21.162;2024-02-23T11:39:06;9.10;99.90
44886;DHT22;36669;51.428;21.162;2024-02-23T11:41:37;9.10;99.90
44886;DHT22;36669;51.428;21.162;2024-02-23T11:44:04;9.10;99.90
44886;DHT22;36669;51.428;21.162;2024-02-23T11:46:32;9.20;99.90
44886;DHT22;36669;51.428;21.162;2024-02-23T11:48:59;9.10;99.90
44886;DHT22;36669;51.428;21.162;2024-02-23T11:51:26;9.10;99.90
44886;DHT22;36669;51.428;21.162;2024-02-23T11:53:57;9.20;99.90
44886;DHT22;36669;51.428;21.162;2024-02-23T11:56:25;9.20;99.90
44886;DHT22;36669;51.428;21.162;2024-02-23T11:58:53;9.20;99.90
44886;DHT22;36669;51.428;21.162;2024-02-23T12:01:21;9.20;99.90
44886;DHT22;36669;51.428;21.162;2024-02-23T12:03:51;9.20;99.90
44886;DHT22;36669;51.428;21.162;2024-02-23T12:06:18;9.20;99.90
44886;DHT22;36669;51.428;21.162;2024-02-23T12:08:44;9.20;99.90
44886;DHT22;36669;51.428;21.162;2024-02-23T12:11:12;9.20;99.90
44886;DHT22;36669;51.428;21.162;2024-02-23T12:13:42;9.30;99.90
44886;DHT22;36669;51.428;21.162;2024-02-23T12:16:09;9.30;99.90
44886;DHT22;36669;51.428;21.162;2024-02-23T12:18:36;9.40;99.90
44886;DHT22;36669;51.428;21.162;2024-02-23T12:21:04;9.40;99.90
44886;DHT22;36669;51.428;21.162;2024-02-23T12:23:43;9.50;99.90
44886;DHT22;36669;51.428;21.162;2024-02-23T12:26:13;9.50;99.90
44886;DHT22;36669;51.428;21.162;2024-02-23T12:28:39;9.60;99.90
44886;DHT22;36669;51.428;21.162;2024-02-23T12:31:05;9.60;99.90
44886;DHT22;36669;51.428;21.162;2024-02-23T12:33:33;9.60;99.90
44886;DHT22;36669;51.428;21.162;2024-02-23T12:36:03;9.60;99.90
44886;DHT22;36669;51.428;21.162;2024-02-23T12:38:32;9.60;99.90
44886;DHT22;36669;51.428;21.162;2024-02-23T12:41:00;9.70;99.90
44886;DHT22;36669;51.428;21.162;2024-02-23T12:43:28;9.70;99.90
44886;DHT22;36669;51.428;21.162;2024-02-23T12:45:55;9.80;99.90
44886;DHT22;36669;51.428;21.162;2024-02-23T12:48:21;9.90;99.90
44886;DHT22;36669;51.428;21.162;2024-02-23T12:50:50;9.90;99.90
44886;DHT22;36669;51.428;21.162;2024-02-23T12:53:50;9.60;99.90
44886;DHT22;36669;51.428;21.162;2024-02-23T12:56:18;9.60;99.90
44886;DHT22;36669;51.428;21.162;2024-02-23T12:58:45;9.50;99.90
44886;DHT22;36669;51.428;21.162;2024-02-23T13:01:13;9.40;99.90
44886;DHT22;36669;51.428;21.162;2024-02-23T13:03:39;9.50;99.90
44886;DHT22;36669;51.428;21.162;2024-02-23T13:06:11;9.60;99.90
44886;DHT22;36669;51.428;21.162;2024-02-23T13:08:40;9.50;99.90
44886;DHT22;36669;51.428;21.162;2024-02-23T13:11:10;9.50;99.90
44886;DHT22;36669;51.428;21.162;2024-02-23T13:13:36;9.50;99.90
44886;DHT22;36669;51.428;21.162;2024-02-23T13:16:03;9.50;99.90
44886;DHT22;36669;51.428;21.162;2024-02-23T13:18:30;9.50;99.90
44886;DHT22;36669;51.428;21.162;2024-02-23T13:20:55;9.60;99.90
44886;DHT22;36669;51.428;21.162;2024-02-23T13:23:22;9.60;99.90
44886;DHT22;36669;51.428;21.162;2024-02-23T13:25:48;9.60;99.90
44886;DHT22;36669;51.428;21.162;2024-02-23T13:28:15;9.60;99.90
44886;DHT22;36669;51.428;21.162;2024-02-23T13:30:43;9.70;99.90
44886;DHT22;36669;51.428;21.162;2024-02-23T13:33:11;9.70;99.90
44886;DHT22;36669;51.428;21.162;2024-02-23T13:35:39;9.70;99.90
44886;DHT22;36669;51.428;21.162;2024-02-23T13:38:04;9.70;99.90
44886;DHT22;36669;51.428;21.162;2024-02-23T13:40:31;9.70;99.90
44886;DHT22;36669;51.428;21.162;2024-02-23T13:43:00;9.70;99.90
44886;DHT22;36669;51.428;21.162;2024-02-23T13:45:28;9.70;99.90
44886;DHT22;36669;51.428;21.162;2024-02-23T13:47:59;9.70;99.90
44886;DHT22;36669;51.428;21.162;2024-02-23T13:50:28;9.70;99.90
44886;DHT22;36669;51.428;21.162;2024-02-23T13:52:57;9.70;99.90
44886;DHT22;36669;51.428;21.162;2024-02-23T13:55:23;9.70;99.90
44886;DHT22;36669;51.428;21.162;2024-02-23T13:57:51;9.70;99.90
44886;DHT22;36669;51.428;21.162;2024-02-23T14:00:20;9.70;99.90
44886;DHT22;36669;51.428;21.162;2024-02-23T14:02:47;9.70;99.90
44886;DHT22;36669;51.428;21.162;2024-02-23T14:05:14;9.80;99.90
44886;DHT22;36669;51.428;21.162;2024-02-23T14:07:43;9.70;99.90
44886;DHT22;36669;51.428;21.162;2024-02-23T14:10:11;9.70;99.90
44886;DHT22;36669;51.428;21.162;2024-02-23T14:12:37;9.70;99.90
44886;DHT22;36669;51.428;21.162;2024-02-23T14:15:07;9.70;99.90
44886;DHT22;36669;51.428;21.162;2024-02-23T14:17:34;9.70;99.90
44886;DHT22;36669;51.428;21.162;2024-02-23T14:20:00;9.70;99.90
44886;DHT22;36669;51.428;21.162;2024-02-23T14:22:28;9.60;99.90
44886;DHT22;36669;51.428;21.162;2024-02-23T14:24:55;9.60;99.90
44886;DHT22;36669;51.428;21.162;2024-02-23T14:27:24;9.60;99.90
44886;DHT22;36669;51.428;21.162;2024-02-23T14:29:50;9.60;99.90
44886;DHT22;36669;51.428;21.162;2024-02-23T14:32:20;9.60;99.90
44886;DHT22;36669;51.428;21.162;2024-02-23T14:34:47;9.50;99.90
44886;DHT22;36669;51.428;21.162;2024-02-23T14:37:15;9.50;99.90
44886;DHT22;36669;51.428;21.162;2024-02-23T14:39:42;9.50;99.90
44886;DHT22;36669;51.428;21.162;2024-02-23T14:42:08;9.50;99.90
44886;DHT22;36669;51.428;21.162;2024-02-23T14:44:37;9.50;99.90
44886;DHT22;36669;51.428;21.162;2024-02-23T14:47:03;9.50;99.90
44886;DHT22;36669;51.428;21.162;2024-02-23T14:49:33;9.50;99.90
44886;DHT22;36669;51.428;21.162;2024-02-23T14:51:58;9.50;99.90
44886;DHT22;36669;51.428;21.162;2024-02-23T14:54:25;9.50;99.90
44886;DHT22;36669;51.428;21.162;2024-02-23T14:56:53;9.50;99.90
44886;DHT22;36669;51.428;21.162;2024-02-23T14:59:18;9.50;99.90
44886;DHT22;36669;51.428;21.162;2024-02-23T15:01:47;9.50;99.90
44886;DHT22;36669;51.428;21.162;2024-02-23T15:04:12;9.50;99.90
44886;DHT22;36669;51.428;21.162;2024-02-23T15:06:38;9.50;99.90
44886;DHT22;36669;51.428;21.162;2024-02-23T15:09:05;9.50;99.90
44886;DHT22;36669;51.428;21.162;2024-02-23T15:11:32;9.50;99.90
44886;DHT22;36669;51.428;21.162;2024-02-23T15:13:59;9.50;99.90
44886;DHT22;36669;51.428;21.162;2024-02-23T15:16:28;9.40;99.90
44886;DHT22;36669;51.428;21.162;2024-02-23T15:18:57;9.40;99.90
44886;DHT22;36669;51.428;21.162;2024-02-23T15:21:25;9.40;99.90
44886;DHT22;36669;51.428;21.162;2024-02-23T15:23:55;9.40;99.90
44886;DHT22;36669;51.428;21.162;2024-02-23T15:26:21;9.30;99.90
44886;DHT22;36669;51.428;21.162;2024-02-23T15:28:47;9.40;99.90
44886;DHT22;36669;51.428;21.162;2024-02-23T15:31:14;9.30;99.90
44886;DHT22;36669;51.428;21.162;2024-02-23T15:33:40;9.30;99.90